sensor_id;sensor_type;location;lat;lon;timestamp;temperature;humidity
8979;DHT22;4524;51.364;5.448;2022-09-06T00:01:13;19.40;1.00
8979;DHT22;4524;51.364;5.448;2022-09-06T00:03:41;19.60;1.00
8979;DHT22;4524;51.364;5.448;2022-09-06T00:06:11;19.60;1.00
8979;DHT22;4524;51.364;5.448;2022-09-06T00:08:42;19.60;1.00
8979;DHT22;4524;51.364;5.448;2022-09-06T00:11:11;19.50;1.00
8979;DHT22;4524;51.364;5.448;2022-09-06T00:13:39;19.60;1.00
8979;DHT22;4524;51.364;5.448;2022-09-06T00:16:09;19.60;1.00
8979;DHT22;4524;51.364;5.448;2022-09-06T00:18:38;19.50;1.00
8979;DHT22;4524;51.364;5.448;2022-09-06T00:21:14;19.60;1.00
8979;DHT22;4524;51.364;5.448;2022-09-06T00:23:43;19.60;1.00
8979;DHT22;4524;51.364;5.448;2022-09-06T00:26:11;19.60;1.00
8979;DHT22;4524;51.364;5.448;2022-09-06T00:28:40;19.50;1.00
8979;DHT22;4524;51.364;5.448;2022-09-06T00:31:09;19.50;1.00
8979;DHT22;4524;51.364;5.448;2022-09-06T00:33:38;19.50;1.00
8979;DHT22;4524;51.364;5.448;2022-09-06T00:36:07;19.50;1.00
8979;DHT22;4524;51.364;5.448;2022-09-06T00:38:35;19.50;1.00
8979;DHT22;4524;51.364;5.448;2022-09-06T00:41:06;19.50;1.00
8979;DHT22;4524;51.364;5.448;2022-09-06T00:43:34;19.60;1.00
8979;DHT22;4524;51.364;5.448;2022-09-06T00:46:02;19.60;1.00
8979;DHT22;4524;51.364;5.448;2022-09-06T00:48:31;19.60;1.00
8979;DHT22;4524;51.364;5.448;2022-09-06T00:51:01;19.60;1.00
8979;DHT22;4524;51.364;5.448;2022-09-06T00:53:31;19.60;1.00
8979;DHT22;4524;51.364;5.448;2022-09-06T00:55:59;19.60;1.00
8979;DHT22;4524;51.364;5.448;2022-09-06T00:58:29;19.40;1.00
8979;DHT22;4524;51.364;5.448;2022-09-06T01:00:57;19.30;12.00
8979;DHT22;4524;51.364;5.448;2022-09-06T01:03:25;19.40;5.10
8979;DHT22;4524;51.364;5.448;2022-09-06T01:08:52;19.40;28.30
8979;DHT22;4524;51.364;5.448;2022-09-06T01:11:32;19.30;25.50
8979;DHT22;4524;51.364;5.448;2022-09-06T01:14:12;19.10;50.60
8979;DHT22;4524;51.364;5.448;2022-09-06T01:16:48;19.10;57.10
8979;DHT22;4524;51.364;5.448;2022-09-06T01:19:47;18.90;51.90
8979;DHT22;4524;51.364;5.448;2022-09-06T01:22:35;18.90;99.90
8979;DHT22;4524;51.364;5.448;2022-09-06T01:25:27;18.90;99.90
8979;DHT22;4524;51.364;5.448;2022-09-06T01:28:16;18.90;99.90
8979;DHT22;4524;51.364;5.448;2022-09-06T01:30:56;19.00;99.90
8979;DHT22;4524;51.364;5.448;2022-09-06T01:33:31;19.00;99.90
8979;DHT22;4524;51.364;5.448;2022-09-06T01:36:04;19.00;99.90
8979;DHT22;4524;51.364;5.448;2022-09-06T01:38:33;19.00;94.00
8979;DHT22;4524;51.364;5.448;2022-09-06T01:41:01;19.00;83.80
8979;DHT22;4524;51.364;5.448;2022-09-06T01:43:33;18.90;99.90
8979;DHT22;4524;51.364;5.448;2022-09-06T01:46:07;18.80;99.90
8979;DHT22;4524;51.364;5.448;2022-09-06T01:49:01;18.70;99.90
8979;DHT22;4524;51.364;5.448;2022-09-06T01:51:37;18.70;99.90
8979;DHT22;4524;51.364;5.448;2022-09-06T01:54:22;18.70;99.90
8979;DHT22;4524;51.364;5.448;2022-09-06T01:57:01;18.70;99.90
8979;DHT22;4524;51.364;5.448;2022-09-06T02:00:06;18.80;99.90
8979;DHT22;4524;51.364;5.448;2022-09-06T02:02:50;18.80;99.90
8979;DHT22;4524;51.364;5.448;2022-09-06T02:05:23;18.80;99.90
8979;DHT22;4524;51.364;5.448;2022-09-06T02:07:56;18.90;93.20
8979;DHT22;4524;51.364;5.448;2022-09-06T02:10:27;18.80;99.90
8979;DHT22;4524;51.364;5.448;2022-09-06T02:13:00;18.90;99.90
8979;DHT22;4524;51.364;5.448;2022-09-06T02:15:32;18.90;99.90
8979;DHT22;4524;51.364;5.448;2022-09-06T02:18:05;18.90;99.90
8979;DHT22;4524;51.364;5.448;2022-09-06T02:20:41;18.90;99.30
8979;DHT22;4524;51.364;5.448;2022-09-06T02:23:11;18.90;97.20
8979;DHT22;4524;51.364;5.448;2022-09-06T02:25:42;18.80;88.20
8979;DHT22;4524;51.364;5.448;2022-09-06T02:28:12;18.80;85.10
8979;DHT22;4524;51.364;5.448;2022-09-06T02:30:44;18.80;84.10
8979;DHT22;4524;51.364;5.448;2022-09-06T02:33:15;18.80;91.00
8979;DHT22;4524;51.364;5.448;2022-09-06T02:35:46;18.70;97.00
8979;DHT22;4524;51.364;5.448;2022-09-06T02:38:15;18.70;97.30
8979;DHT22;4524;51.364;5.448;2022-09-06T02:40:43;18.60;98.30
8979;DHT22;4524;51.364;5.448;2022-09-06T02:43:12;18.60;99.90
8979;DHT22;4524;51.364;5.448;2022-09-06T02:45:41;18.70;99.90
8979;DHT22;4524;51.364;5.448;2022-09-06T02:48:09;18.70;99.90
8979;DHT22;4524;51.364;5.448;2022-09-06T02:50:37;18.70;94.40
8979;DHT22;4524;51.364;5.448;2022-09-06T02:53:07;18.60;99.90
8979;DHT22;4524;51.364;5.448;2022-09-06T02:55:36;18.60;95.60
8979;DHT22;4524;51.364;5.448;2022-09-06T02:58:05;18.50;93.80
8979;DHT22;4524;51.364;5.448;2022-09-06T03:00:33;18.50;98.50
8979;DHT22;4524;51.364;5.448;2022-09-06T03:03:02;18.40;98.90
8979;DHT22;4524;51.364;5.448;2022-09-06T03:05:31;18.40;98.30
8979;DHT22;4524;51.364;5.448;2022-09-06T03:07:59;18.40;99.90
8979;DHT22;4524;51.364;5.448;2022-09-06T03:10:27;18.40;99.90
8979;DHT22;4524;51.364;5.448;2022-09-06T03:12:56;18.50;99.90
8979;DHT22;4524;51.364;5.448;2022-09-06T03:15:24;18.40;99.90
8979;DHT22;4524;51.364;5.448;2022-09-06T03:17:56;18.50;93.30
8979;DHT22;4524;51.364;5.448;2022-09-06T03:20:25;18.40;99.90
8979;DHT22;4524;51.364;5.448;2022-09-06T03:22:53;18.40;95.50
8979;DHT22;4524;51.364;5.448;2022-09-06T03:25:21;18.40;98.20
8979;DHT22;4524;51.364;5.448;2022-09-06T03:27:49;18.40;99.90
8979;DHT22;4524;51.364;5.448;2022-09-06T03:30:17;18.30;99.90
8979;DHT22;4524;51.364;5.448;2022-09-06T03:32:45;18.30;99.90
8979;DHT22;4524;51.364;5.448;2022-09-06T03:35:13;18.30;99.90
8979;DHT22;4524;51.364;5.448;2022-09-06T03:37:42;18.30;99.90
8979;DHT22;4524;51.364;5.448;2022-09-06T03:40:10;18.30;99.90
8979;DHT22;4524;51.364;5.448;2022-09-06T03:42:38;18.20;99.90
8979;DHT22;4524;51.364;5.448;2022-09-06T03:45:07;18.20;99.90
8979;DHT22;4524;51.364;5.448;2022-09-06T03:47:35;18.20;99.90
8979;DHT22;4524;51.364;5.448;2022-09-06T03:50:04;18.10;99.90
8979;DHT22;4524;51.364;5.448;2022-09-06T03:52:32;18.10;99.90
8979;DHT22;4524;51.364;5.448;2022-09-06T03:55:01;18.10;99.90
8979;DHT22;4524;51.364;5.448;2022-09-06T03:57:30;18.10;99.90
8979;DHT22;4524;51.364;5.448;2022-09-06T03:59:58;18.00;99.90
8979;DHT22;4524;51.364;5.448;2022-09-06T04:02:26;18.00;99.90
8979;DHT22;4524;51.364;5.448;2022-09-06T04:04:54;18.00;99.90
8979;DHT22;4524;51.364;5.448;2022-09-06T04:07:22;18.00;99.90
8979;DHT22;4524;51.364;5.448;2022-09-06T04:09:49;17.90;99.90
8979;DHT22;4524;51.364;5.448;2022-09-06T04:12:19;17.90;99.90
8979;DHT22;4524;51.364;5.448;2022-09-06T04:14:47;17.90;99.90
8979;DHT22;4524;51.364;5.448;2022-09-06T04:17:14;17.90;99.90
8979;DHT22;4524;51.364;5.448;2022-09-06T04:19:42;17.80;99.90
8979;DHT22;4524;51.364;5.448;2022-09-06T04:22:10;17.80;99.90
8979;DHT22;4524;51.364;5.448;2022-09-06T04:24:38;17.70;99.90
8979;DHT22;4524;51.364;5.448;2022-09-06T04:27:06;17.80;99.90
8979;DHT22;4524;51.364;5.448;2022-09-06T04:29:35;17.70;99.90
8979;DHT22;4524;51.364;5.448;2022-09-06T04:32:03;17.70;99.90
8979;DHT22;4524;51.364;5.448;2022-09-06T04:34:31;17.70;99.90
8979;DHT22;4524;51.364;5.448;2022-09-06T04:36:59;18.00;99.90
8979;DHT22;4524;51.364;5.448;2022-09-06T04:39:27;18.40;58.50
8979;DHT22;4524;51.364;5.448;2022-09-06T04:41:55;18.30;36.20
8979;DHT22;4524;51.364;5.448;2022-09-06T04:44:23;18.40;19.40
8979;DHT22;4524;51.364;5.448;2022-09-06T04:47:02;18.40;7.60
8979;DHT22;4524;51.364;5.448;2022-09-06T04:49:35;18.30;6.00
8979;DHT22;4524;51.364;5.448;2022-09-06T04:52:03;18.30;19.90
8979;DHT22;4524;51.364;5.448;2022-09-06T04:54:31;18.30;11.80
8979;DHT22;4524;51.364;5.448;2022-09-06T04:56:59;18.20;15.40
8979;DHT22;4524;51.364;5.448;2022-09-06T04:59:27;18.10;28.00
8979;DHT22;4524;51.364;5.448;2022-09-06T05:01:56;18.10;42.10
8979;DHT22;4524;51.364;5.448;2022-09-06T05:04:24;18.00;74.40
8979;DHT22;4524;51.364;5.448;2022-09-06T05:06:59;17.90;99.90
8979;DHT22;4524;51.364;5.448;2022-09-06T05:09:27;17.80;99.90
8979;DHT22;4524;51.364;5.448;2022-09-06T05:11:55;17.70;99.90
8979;DHT22;4524;51.364;5.448;2022-09-06T05:14:23;17.60;99.90
8979;DHT22;4524;51.364;5.448;2022-09-06T05:16:51;17.50;99.90
8979;DHT22;4524;51.364;5.448;2022-09-06T05:19:21;17.50;99.90
8979;DHT22;4524;51.364;5.448;2022-09-06T05:21:50;17.70;99.90
8979;DHT22;4524;51.364;5.448;2022-09-06T05:24:18;17.90;84.80
8979;DHT22;4524;51.364;5.448;2022-09-06T05:26:46;18.40;1.00
8979;DHT22;4524;51.364;5.448;2022-09-06T05:29:14;18.40;1.00
8979;DHT22;4524;51.364;5.448;2022-09-06T05:31:42;18.50;1.00
8979;DHT22;4524;51.364;5.448;2022-09-06T05:34:10;18.60;1.00
8979;DHT22;4524;51.364;5.448;2022-09-06T05:36:40;18.90;1.00
8979;DHT22;4524;51.364;5.448;2022-09-06T05:39:08;19.00;1.00
8979;DHT22;4524;51.364;5.448;2022-09-06T05:41:36;18.90;1.00
8979;DHT22;4524;51.364;5.448;2022-09-06T05:44:04;18.90;1.00
8979;DHT22;4524;51.364;5.448;2022-09-06T05:46:32;19.20;1.00
8979;DHT22;4524;51.364;5.448;2022-09-06T05:49:00;19.10;1.00
8979;DHT22;4524;51.364;5.448;2022-09-06T05:51:33;19.20;1.00
8979;DHT22;4524;51.364;5.448;2022-09-06T05:54:02;19.20;1.00
8979;DHT22;4524;51.364;5.448;2022-09-06T05:56:30;19.30;1.00
8979;DHT22;4524;51.364;5.448;2022-09-06T05:58:58;19.50;1.00
8979;DHT22;4524;51.364;5.448;2022-09-06T06:01:28;19.40;1.00
8979;DHT22;4524;51.364;5.448;2022-09-06T06:03:58;19.50;1.00
8979;DHT22;4524;51.364;5.448;2022-09-06T06:06:28;19.60;1.00
8979;DHT22;4524;51.364;5.448;2022-09-06T06:08:56;19.60;1.00
8979;DHT22;4524;51.364;5.448;2022-09-06T06:11:26;19.70;1.00
8979;DHT22;4524;51.364;5.448;2022-09-06T06:13:55;19.70;1.00
8979;DHT22;4524;51.364;5.448;2022-09-06T06:16:24;19.60;1.00
8979;DHT22;4524;51.364;5.448;2022-09-06T06:18:52;19.70;1.00
8979;DHT22;4524;51.364;5.448;2022-09-06T06:21:22;19.80;1.00
8979;DHT22;4524;51.364;5.448;2022-09-06T06:23:51;19.90;1.00
8979;DHT22;4524;51.364;5.448;2022-09-06T06:26:20;20.00;1.00
8979;DHT22;4524;51.364;5.448;2022-09-06T06:28:49;20.10;1.00
8979;DHT22;4524;51.364;5.448;2022-09-06T06:31:19;20.10;1.00
8979;DHT22;4524;51.364;5.448;2022-09-06T06:33:48;20.10;1.00
8979;DHT22;4524;51.364;5.448;2022-09-06T06:36:21;20.20;1.00
8979;DHT22;4524;51.364;5.448;2022-09-06T06:38:51;20.20;1.00
8979;DHT22;4524;51.364;5.448;2022-09-06T06:41:22;20.30;1.00
8979;DHT22;4524;51.364;5.448;2022-09-06T06:43:52;20.20;1.00
8979;DHT22;4524;51.364;5.448;2022-09-06T06:46:21;20.30;1.00
8979;DHT22;4524;51.364;5.448;2022-09-06T06:48:49;20.40;1.00
8979;DHT22;4524;51.364;5.448;2022-09-06T06:51:23;20.50;1.00
8979;DHT22;4524;51.364;5.448;2022-09-06T06:53:51;20.50;1.00
8979;DHT22;4524;51.364;5.448;2022-09-06T06:56:21;20.50;1.00
8979;DHT22;4524;51.364;5.448;2022-09-06T06:58:50;20.60;1.00
8979;DHT22;4524;51.364;5.448;2022-09-06T07:01:21;20.60;99.90
8979;DHT22;4524;51.364;5.448;2022-09-06T07:03:49;20.60;1.00
8979;DHT22;4524;51.364;5.448;2022-09-06T07:06:18;20.70;99.90
8979;DHT22;4524;51.364;5.448;2022-09-06T07:08:47;20.70;99.90
8979;DHT22;4524;51.364;5.448;2022-09-06T07:11:16;20.80;99.90
8979;DHT22;4524;51.364;5.448;2022-09-06T07:13:50;20.90;99.90
8979;DHT22;4524;51.364;5.448;2022-09-06T07:16:21;20.90;99.90
8979;DHT22;4524;51.364;5.448;2022-09-06T07:18:50;20.90;99.90
8979;DHT22;4524;51.364;5.448;2022-09-06T07:21:20;21.00;99.90
8979;DHT22;4524;51.364;5.448;2022-09-06T07:24:07;21.00;99.90
8979;DHT22;4524;51.364;5.448;2022-09-06T07:26:37;21.00;99.90
8979;DHT22;4524;51.364;5.448;2022-09-06T07:29:07;21.10;99.90
8979;DHT22;4524;51.364;5.448;2022-09-06T07:31:37;21.20;99.90
8979;DHT22;4524;51.364;5.448;2022-09-06T07:34:25;21.30;99.90
8979;DHT22;4524;51.364;5.448;2022-09-06T07:36:53;21.30;99.90
8979;DHT22;4524;51.364;5.448;2022-09-06T07:39:21;21.30;99.90
8979;DHT22;4524;51.364;5.448;2022-09-06T07:41:49;21.40;99.90
8979;DHT22;4524;51.364;5.448;2022-09-06T07:44:17;21.40;99.90
8979;DHT22;4524;51.364;5.448;2022-09-06T07:46:47;21.40;99.90
8979;DHT22;4524;51.364;5.448;2022-09-06T07:49:15;21.50;99.90
8979;DHT22;4524;51.364;5.448;2022-09-06T07:51:43;21.60;99.90
8979;DHT22;4524;51.364;5.448;2022-09-06T07:54:11;21.60;99.90
8979;DHT22;4524;51.364;5.448;2022-09-06T07:56:56;21.70;99.90
8979;DHT22;4524;51.364;5.448;2022-09-06T07:59:24;21.70;99.90
8979;DHT22;4524;51.364;5.448;2022-09-06T08:01:54;21.70;99.90
8979;DHT22;4524;51.364;5.448;2022-09-06T08:04:22;21.80;99.90
8979;DHT22;4524;51.364;5.448;2022-09-06T08:06:50;21.80;99.90
8979;DHT22;4524;51.364;5.448;2022-09-06T08:09:39;21.90;99.90
8979;DHT22;4524;51.364;5.448;2022-09-06T08:12:07;21.90;99.90
8979;DHT22;4524;51.364;5.448;2022-09-06T08:14:37;22.00;99.90
8979;DHT22;4524;51.364;5.448;2022-09-06T08:17:07;22.00;99.90
8979;DHT22;4524;51.364;5.448;2022-09-06T08:19:35;22.10;99.90
8979;DHT22;4524;51.364;5.448;2022-09-06T08:22:03;22.10;99.90
8979;DHT22;4524;51.364;5.448;2022-09-06T08:24:30;22.10;99.90
8979;DHT22;4524;51.364;5.448;2022-09-06T08:27:01;22.20;99.90
8979;DHT22;4524;51.364;5.448;2022-09-06T08:29:29;22.40;99.90
8979;DHT22;4524;51.364;5.448;2022-09-06T08:31:57;22.50;99.90
8979;DHT22;4524;51.364;5.448;2022-09-06T08:34:26;22.50;99.90
8979;DHT22;4524;51.364;5.448;2022-09-06T08:36:54;22.60;99.90
8979;DHT22;4524;51.364;5.448;2022-09-06T08:39:22;22.70;99.90
8979;DHT22;4524;51.364;5.448;2022-09-06T08:41:53;22.70;99.90
8979;DHT22;4524;51.364;5.448;2022-09-06T08:44:24;22.80;99.90
8979;DHT22;4524;51.364;5.448;2022-09-06T08:47:13;22.80;99.90
8979;DHT22;4524;51.364;5.448;2022-09-06T08:49:44;22.80;99.90
8979;DHT22;4524;51.364;5.448;2022-09-06T08:52:26;23.00;99.90
8979;DHT22;4524;51.364;5.448;2022-09-06T08:55:04;23.10;99.90
8979;DHT22;4524;51.364;5.448;2022-09-06T08:57:49;23.10;99.90
8979;DHT22;4524;51.364;5.448;2022-09-06T09:00:19;23.10;99.90
8979;DHT22;4524;51.364;5.448;2022-09-06T09:02:51;23.30;99.90
8979;DHT22;4524;51.364;5.448;2022-09-06T09:05:28;23.40;99.90
8979;DHT22;4524;51.364;5.448;2022-09-06T09:08:05;23.50;99.90
8979;DHT22;4524;51.364;5.448;2022-09-06T09:10:40;23.40;99.90
8979;DHT22;4524;51.364;5.448;2022-09-06T09:13:18;23.40;99.90
8979;DHT22;4524;51.364;5.448;2022-09-06T09:15:48;23.50;99.90
8979;DHT22;4524;51.364;5.448;2022-09-06T09:18:22;23.60;99.90
8979;DHT22;4524;51.364;5.448;2022-09-06T09:20:53;23.60;99.90
8979;DHT22;4524;51.364;5.448;2022-09-06T09:23:21;23.60;99.90
8979;DHT22;4524;51.364;5.448;2022-09-06T09:25:50;23.70;99.90
8979;DHT22;4524;51.364;5.448;2022-09-06T09:28:22;23.70;99.90
8979;DHT22;4524;51.364;5.448;2022-09-06T09:30:52;23.80;99.90
8979;DHT22;4524;51.364;5.448;2022-09-06T09:33:23;23.80;99.90
8979;DHT22;4524;51.364;5.448;2022-09-06T09:35:53;23.90;99.90
8979;DHT22;4524;51.364;5.448;2022-09-06T09:38:23;24.10;99.90
8979;DHT22;4524;51.364;5.448;2022-09-06T09:40:53;24.20;99.90
8979;DHT22;4524;51.364;5.448;2022-09-06T09:43:22;24.20;99.90
8979;DHT22;4524;51.364;5.448;2022-09-06T09:46:14;24.30;99.90
8979;DHT22;4524;51.364;5.448;2022-09-06T09:48:46;24.40;99.90
8979;DHT22;4524;51.364;5.448;2022-09-06T09:51:28;24.50;99.90
8979;DHT22;4524;51.364;5.448;2022-09-06T09:53:58;24.60;99.90
8979;DHT22;4524;51.364;5.448;2022-09-06T09:56:32;24.70;99.90
8979;DHT22;4524;51.364;5.448;2022-09-06T09:59:01;24.80;99.90
8979;DHT22;4524;51.364;5.448;2022-09-06T10:01:33;24.80;99.90
8979;DHT22;4524;51.364;5.448;2022-09-06T10:04:06;24.90;99.90
8979;DHT22;4524;51.364;5.448;2022-09-06T10:07:08;24.80;99.90
8979;DHT22;4524;51.364;5.448;2022-09-06T10:09:38;24.80;99.90
8979;DHT22;4524;51.364;5.448;2022-09-06T10:12:14;24.70;99.90
8979;DHT22;4524;51.364;5.448;2022-09-06T10:14:44;24.80;99.90
8979;DHT22;4524;51.364;5.448;2022-09-06T10:17:22;24.90;99.90
8979;DHT22;4524;51.364;5.448;2022-09-06T10:19:54;25.00;99.90
8979;DHT22;4524;51.364;5.448;2022-09-06T10:22:27;25.10;99.90
8979;DHT22;4524;51.364;5.448;2022-09-06T10:25:18;25.10;99.90
8979;DHT22;4524;51.364;5.448;2022-09-06T10:27:59;25.40;99.90
8979;DHT22;4524;51.364;5.448;2022-09-06T10:30:42;25.40;99.90
8979;DHT22;4524;51.364;5.448;2022-09-06T10:33:20;25.50;99.90
8979;DHT22;4524;51.364;5.448;2022-09-06T10:35:51;25.60;99.90
8979;DHT22;4524;51.364;5.448;2022-09-06T10:38:47;25.60;99.90
8979;DHT22;4524;51.364;5.448;2022-09-06T10:41:25;25.60;99.90
8979;DHT22;4524;51.364;5.448;2022-09-06T10:44:06;25.70;99.90
8979;DHT22;4524;51.364;5.448;2022-09-06T10:46:37;25.80;99.90
8979;DHT22;4524;51.364;5.448;2022-09-06T10:49:25;26.00;99.90
8979;DHT22;4524;51.364;5.448;2022-09-06T10:51:57;26.10;99.90
8979;DHT22;4524;51.364;5.448;2022-09-06T10:54:29;26.20;99.90
8979;DHT22;4524;51.364;5.448;2022-09-06T10:57:01;26.10;99.90
8979;DHT22;4524;51.364;5.448;2022-09-06T10:59:33;26.30;99.90
8979;DHT22;4524;51.364;5.448;2022-09-06T11:02:14;26.40;99.90
8979;DHT22;4524;51.364;5.448;2022-09-06T11:04:45;26.40;99.90
8979;DHT22;4524;51.364;5.448;2022-09-06T11:07:36;26.30;99.90
8979;DHT22;4524;51.364;5.448;2022-09-06T11:10:13;26.20;99.90
8979;DHT22;4524;51.364;5.448;2022-09-06T11:12:46;26.40;99.90
8979;DHT22;4524;51.364;5.448;2022-09-06T11:15:18;26.40;99.90
8979;DHT22;4524;51.364;5.448;2022-09-06T11:18:01;26.50;99.90
8979;DHT22;4524;51.364;5.448;2022-09-06T11:20:34;26.00;99.90
8979;DHT22;4524;51.364;5.448;2022-09-06T11:23:20;25.60;99.90
8979;DHT22;4524;51.364;5.448;2022-09-06T11:26:26;25.70;99.90
8979;DHT22;4524;51.364;5.448;2022-09-06T11:28:57;25.90;99.90
8979;DHT22;4524;51.364;5.448;2022-09-06T11:31:27;26.20;99.90
8979;DHT22;4524;51.364;5.448;2022-09-06T11:34:22;26.40;99.90
8979;DHT22;4524;51.364;5.448;2022-09-06T11:36:51;26.50;99.90
8979;DHT22;4524;51.364;5.448;2022-09-06T11:39:31;26.60;99.90
8979;DHT22;4524;51.364;5.448;2022-09-06T11:42:40;26.50;99.90
8979;DHT22;4524;51.364;5.448;2022-09-06T11:45:39;26.50;99.90
8979;DHT22;4524;51.364;5.448;2022-09-06T11:48:45;26.50;99.90
8979;DHT22;4524;51.364;5.448;2022-09-06T11:54:23;26.40;99.90
8979;DHT22;4524;51.364;5.448;2022-09-06T11:56:57;26.60;99.90
8979;DHT22;4524;51.364;5.448;2022-09-06T11:59:33;26.60;99.90
8979;DHT22;4524;51.364;5.448;2022-09-06T12:02:04;26.70;99.90
8979;DHT22;4524;51.364;5.448;2022-09-06T12:08:13;26.70;99.90
8979;DHT22;4524;51.364;5.448;2022-09-06T12:10:55;26.70;99.90
8979;DHT22;4524;51.364;5.448;2022-09-06T12:13:41;26.70;99.90
8979;DHT22;4524;51.364;5.448;2022-09-06T12:16:15;26.70;99.90
8979;DHT22;4524;51.364;5.448;2022-09-06T12:19:00;26.60;99.90
8979;DHT22;4524;51.364;5.448;2022-09-06T12:21:33;26.60;99.90
8979;DHT22;4524;51.364;5.448;2022-09-06T12:24:03;26.60;99.90
8979;DHT22;4524;51.364;5.448;2022-09-06T12:26:46;26.70;99.90
8979;DHT22;4524;51.364;5.448;2022-09-06T12:29:23;26.60;99.90
8979;DHT22;4524;51.364;5.448;2022-09-06T12:31:53;26.60;99.90
8979;DHT22;4524;51.364;5.448;2022-09-06T12:34:23;26.70;99.90
8979;DHT22;4524;51.364;5.448;2022-09-06T12:36:56;26.80;99.90
8979;DHT22;4524;51.364;5.448;2022-09-06T12:39:27;26.90;99.90
8979;DHT22;4524;51.364;5.448;2022-09-06T12:41:59;26.80;99.90
8979;DHT22;4524;51.364;5.448;2022-09-06T12:44:33;26.70;99.90
8979;DHT22;4524;51.364;5.448;2022-09-06T12:47:08;26.70;99.90
8979;DHT22;4524;51.364;5.448;2022-09-06T12:49:37;26.90;99.90
8979;DHT22;4524;51.364;5.448;2022-09-06T12:52:07;26.70;99.90
8979;DHT22;4524;51.364;5.448;2022-09-06T12:54:44;26.70;99.90
8979;DHT22;4524;51.364;5.448;2022-09-06T12:57:17;26.70;99.90
8979;DHT22;4524;51.364;5.448;2022-09-06T12:59:50;27.00;99.90
8979;DHT22;4524;51.364;5.448;2022-09-06T13:02:24;27.10;99.90
8979;DHT22;4524;51.364;5.448;2022-09-06T13:04:58;27.20;99.90
8979;DHT22;4524;51.364;5.448;2022-09-06T13:07:27;27.10;99.90
8979;DHT22;4524;51.364;5.448;2022-09-06T13:09:59;27.10;99.90
8979;DHT22;4524;51.364;5.448;2022-09-06T13:12:31;27.20;99.90
8979;DHT22;4524;51.364;5.448;2022-09-06T13:15:03;27.20;99.90
8979;DHT22;4524;51.364;5.448;2022-09-06T13:17:31;27.20;99.90
8979;DHT22;4524;51.364;5.448;2022-09-06T13:20:09;27.10;99.90
8979;DHT22;4524;51.364;5.448;2022-09-06T13:22:44;27.10;99.90
8979;DHT22;4524;51.364;5.448;2022-09-06T13:25:21;27.10;99.90
8979;DHT22;4524;51.364;5.448;2022-09-06T13:27:51;27.10;99.90
8979;DHT22;4524;51.364;5.448;2022-09-06T13:30:31;27.10;99.90
8979;DHT22;4524;51.364;5.448;2022-09-06T13:33:01;27.20;99.90
8979;DHT22;4524;51.364;5.448;2022-09-06T13:35:30;27.30;99.90
8979;DHT22;4524;51.364;5.448;2022-09-06T13:38:18;27.20;99.90
8979;DHT22;4524;51.364;5.448;2022-09-06T13:40:49;27.20;99.90
8979;DHT22;4524;51.364;5.448;2022-09-06T13:43:42;27.20;99.90
8979;DHT22;4524;51.364;5.448;2022-09-06T13:46:11;27.30;99.90
8979;DHT22;4524;51.364;5.448;2022-09-06T13:48:39;27.30;99.90
8979;DHT22;4524;51.364;5.448;2022-09-06T13:51:10;27.40;99.90
8979;DHT22;4524;51.364;5.448;2022-09-06T13:53:38;27.40;99.90
8979;DHT22;4524;51.364;5.448;2022-09-06T13:56:07;27.40;99.90
8979;DHT22;4524;51.364;5.448;2022-09-06T13:58:35;27.40;99.90
8979;DHT22;4524;51.364;5.448;2022-09-06T14:01:04;27.40;99.90
8979;DHT22;4524;51.364;5.448;2022-09-06T14:03:35;27.40;99.90
8979;DHT22;4524;51.364;5.448;2022-09-06T14:06:05;27.40;99.90
8979;DHT22;4524;51.364;5.448;2022-09-06T14:08:33;27.40;99.90
8979;DHT22;4524;51.364;5.448;2022-09-06T14:11:24;27.40;99.90
8979;DHT22;4524;51.364;5.448;2022-09-06T14:13:52;27.40;99.90
8979;DHT22;4524;51.364;5.448;2022-09-06T14:16:20;27.50;99.90
8979;DHT22;4524;51.364;5.448;2022-09-06T14:18:48;27.50;99.90
8979;DHT22;4524;51.364;5.448;2022-09-06T14:21:16;27.40;99.90
8979;DHT22;4524;51.364;5.448;2022-09-06T14:23:47;27.40;99.90
8979;DHT22;4524;51.364;5.448;2022-09-06T14:26:17;27.50;99.90
8979;DHT22;4524;51.364;5.448;2022-09-06T14:28:48;27.50;99.90
8979;DHT22;4524;51.364;5.448;2022-09-06T14:31:17;27.50;99.90
8979;DHT22;4524;51.364;5.448;2022-09-06T14:33:46;27.50;99.90
8979;DHT22;4524;51.364;5.448;2022-09-06T14:36:16;27.50;99.90
8979;DHT22;4524;51.364;5.448;2022-09-06T14:38:46;27.50;99.90
8979;DHT22;4524;51.364;5.448;2022-09-06T14:41:15;27.40;99.90
8979;DHT22;4524;51.364;5.448;2022-09-06T14:43:50;27.40;99.90
8979;DHT22;4524;51.364;5.448;2022-09-06T14:46:19;27.50;99.90
8979;DHT22;4524;51.364;5.448;2022-09-06T14:48:54;27.50;99.90
8979;DHT22;4524;51.364;5.448;2022-09-06T14:51:22;27.70;99.90
8979;DHT22;4524;51.364;5.448;2022-09-06T14:53:52;27.60;99.90
8979;DHT22;4524;51.364;5.448;2022-09-06T14:56:21;27.60;99.90
8979;DHT22;4524;51.364;5.448;2022-09-06T14:58:50;27.70;99.90
8979;DHT22;4524;51.364;5.448;2022-09-06T15:01:23;27.70;99.90
8979;DHT22;4524;51.364;5.448;2022-09-06T15:03:54;27.70;99.90
8979;DHT22;4524;51.364;5.448;2022-09-06T15:06:24;27.70;99.90
8979;DHT22;4524;51.364;5.448;2022-09-06T15:08:52;27.60;99.90
8979;DHT22;4524;51.364;5.448;2022-09-06T15:11:29;27.60;99.90
8979;DHT22;4524;51.364;5.448;2022-09-06T15:14:01;27.60;99.90
8979;DHT22;4524;51.364;5.448;2022-09-06T15:16:31;27.60;99.90
8979;DHT22;4524;51.364;5.448;2022-09-06T15:19:00;27.60;99.90
8979;DHT22;4524;51.364;5.448;2022-09-06T15:21:29;27.60;99.90
8979;DHT22;4524;51.364;5.448;2022-09-06T15:23:57;27.70;99.90
8979;DHT22;4524;51.364;5.448;2022-09-06T15:26:28;27.70;99.90
8979;DHT22;4524;51.364;5.448;2022-09-06T15:28:56;27.70;99.90
8979;DHT22;4524;51.364;5.448;2022-09-06T15:31:25;27.70;99.90
8979;DHT22;4524;51.364;5.448;2022-09-06T15:33:53;27.70;99.90
8979;DHT22;4524;51.364;5.448;2022-09-06T15:36:21;27.60;99.90
8979;DHT22;4524;51.364;5.448;2022-09-06T15:38:50;27.70;99.90
8979;DHT22;4524;51.364;5.448;2022-09-06T15:41:21;27.60;99.90
8979;DHT22;4524;51.364;5.448;2022-09-06T15:43:53;27.60;99.90
8979;DHT22;4524;51.364;5.448;2022-09-06T15:46:42;27.50;99.90
8979;DHT22;4524;51.364;5.448;2022-09-06T15:49:12;27.40;99.90
8979;DHT22;4524;51.364;5.448;2022-09-06T15:51:41;27.50;99.90
8979;DHT22;4524;51.364;5.448;2022-09-06T15:54:10;27.40;99.90
8979;DHT22;4524;51.364;5.448;2022-09-06T15:56:39;27.40;99.90
8979;DHT22;4524;51.364;5.448;2022-09-06T15:59:06;27.40;99.90
8979;DHT22;4524;51.364;5.448;2022-09-06T16:01:34;27.40;99.90
8979;DHT22;4524;51.364;5.448;2022-09-06T16:04:04;27.40;99.90
8979;DHT22;4524;51.364;5.448;2022-09-06T16:06:35;27.50;99.90
8979;DHT22;4524;51.364;5.448;2022-09-06T16:09:05;27.50;99.90
8979;DHT22;4524;51.364;5.448;2022-09-06T16:11:34;27.50;99.90
8979;DHT22;4524;51.364;5.448;2022-09-06T16:14:03;27.40;99.90
8979;DHT22;4524;51.364;5.448;2022-09-06T16:16:31;27.40;99.90
8979;DHT22;4524;51.364;5.448;2022-09-06T16:19:01;27.20;99.90
8979;DHT22;4524;51.364;5.448;2022-09-06T16:21:31;27.10;99.90
8979;DHT22;4524;51.364;5.448;2022-09-06T16:24:00;27.10;99.90
8979;DHT22;4524;51.364;5.448;2022-09-06T16:26:30;27.10;99.90
8979;DHT22;4524;51.364;5.448;2022-09-06T16:28:59;27.10;99.90
8979;DHT22;4524;51.364;5.448;2022-09-06T16:31:28;27.10;99.90
8979;DHT22;4524;51.364;5.448;2022-09-06T16:33:56;27.10;99.90
8979;DHT22;4524;51.364;5.448;2022-09-06T16:36:24;27.00;99.90
8979;DHT22;4524;51.364;5.448;2022-09-06T16:38:54;26.90;99.90
8979;DHT22;4524;51.364;5.448;2022-09-06T16:41:24;26.90;99.90
8979;DHT22;4524;51.364;5.448;2022-09-06T16:43:54;26.90;99.90
8979;DHT22;4524;51.364;5.448;2022-09-06T16:46:24;26.80;99.90